createdAt,value
2019-02-08T00:01:26.259Z,24.00
2019-02-08T00:03:55.069Z,29.27
2019-02-08T00:06:23.923Z,22.20
2019-02-08T00:08:52.817Z,26.40
2019-02-08T00:11:21.582Z,25.63
2019-02-08T00:13:50.370Z,22.83
2019-02-08T00:16:19.182Z,22.77
2019-02-08T00:18:47.983Z,19.07
2019-02-08T00:21:16.811Z,28.00
2019-02-08T00:23:45.593Z,28.53
2019-02-08T00:26:14.431Z,22.77
2019-02-08T00:28:43.239Z,19.20
2019-02-08T00:31:12.095Z,25.20
2019-02-08T00:33:40.876Z,17.13
2019-02-08T00:36:09.674Z,18.33
2019-02-08T00:38:38.472Z,26.70
2019-02-08T00:41:07.280Z,16.83
2019-02-08T00:43:36.100Z,22.33
2019-02-08T00:46:04.972Z,28.90
2019-02-08T00:48:33.772Z,20.17
2019-02-08T00:51:02.579Z,14.13
2019-02-08T00:53:33.533Z,16.13
2019-02-08T00:56:00.195Z,23.50
2019-02-08T00:58:29.000Z,28.07
2019-02-08T01:00:57.804Z,17.07
2019-02-08T01:03:26.608Z,21.30
2019-02-08T01:05:55.427Z,18.43
2019-02-08T01:08:24.768Z,16.77
2019-02-08T01:10:53.568Z,23.57
2019-02-08T01:13:22.367Z,19.70
2019-02-08T01:15:51.732Z,14.87
2019-02-08T01:18:20.559Z,18.57
2019-02-08T01:20:49.336Z,15.37
2019-02-08T01:23:18.135Z,14.37
2019-02-08T01:25:46.930Z,23.73
2019-02-08T01:28:15.767Z,17.80
2019-02-08T01:30:44.577Z,23.70
2019-02-08T01:33:13.375Z,17.43
2019-02-08T01:35:42.191Z,12.67
2019-02-08T01:38:10.993Z,18.57
2019-02-08T01:40:39.797Z,12.77
2019-02-08T01:43:08.593Z,17.67
2019-02-08T01:45:37.393Z,20.80
2019-02-08T01:48:06.476Z,18.33
2019-02-08T01:50:35.289Z,17.93
2019-02-08T01:53:04.099Z,12.77
2019-02-08T01:55:32.919Z,12.13
2019-02-08T01:58:01.730Z,11.00
2019-02-08T02:00:35.386Z,15.37
2019-02-08T02:03:04.561Z,17.30
2019-02-08T02:05:33.346Z,14.83
2019-02-08T02:08:02.148Z,13.50
2019-02-08T02:10:32.857Z,18.70
2019-02-08T02:13:01.644Z,11.47
2019-02-08T02:15:30.452Z,10.70
2019-02-08T02:17:59.246Z,12.80
2019-02-08T02:20:31.207Z,15.43
2019-02-08T02:22:59.991Z,15.07
2019-02-08T02:25:28.815Z,17.70
2019-02-08T02:27:57.638Z,17.93
2019-02-08T02:30:28.300Z,12.27
2019-02-08T02:32:57.159Z,16.40
2019-02-08T02:35:25.944Z,14.33
2019-02-08T02:37:54.767Z,17.80
2019-02-08T02:40:23.589Z,13.67
2019-02-08T02:42:52.415Z,16.40
2019-02-08T02:45:25.882Z,13.97
2019-02-08T02:47:54.685Z,14.47
2019-02-08T02:50:23.478Z,13.27
2019-02-08T02:52:52.307Z,19.27
2019-02-08T02:55:22.023Z,16.43
2019-02-08T02:57:50.803Z,12.40
2019-02-08T03:00:23.675Z,20.60
2019-02-08T03:02:52.462Z,15.70
2019-02-08T03:05:21.254Z,7.60
2019-02-08T03:07:50.101Z,18.90
2019-02-08T03:10:19.530Z,17.43
2019-02-08T03:12:48.319Z,15.60
2019-02-08T03:15:18.456Z,12.33
2019-02-08T03:17:47.331Z,10.57
2019-02-08T03:20:17.259Z,11.07
2019-02-08T03:22:46.095Z,13.67
2019-02-08T03:25:17.094Z,13.37
2019-02-08T03:27:45.965Z,16.07
2019-02-08T03:30:16.802Z,19.27
2019-02-08T03:32:45.571Z,15.83
2019-02-08T03:35:17.275Z,14.67
2019-02-08T03:37:46.089Z,8.43
2019-02-08T03:40:17.697Z,13.10
2019-02-08T03:42:46.480Z,16.83
2019-02-08T03:45:15.282Z,12.57
2019-02-08T03:47:44.058Z,19.13
2019-02-08T03:50:14.587Z,13.93
2019-02-08T03:52:44.244Z,10.80
2019-02-08T03:55:14.631Z,11.20
2019-02-08T03:57:43.424Z,13.63
2019-02-08T04:00:15.590Z,13.53
2019-02-08T04:02:44.377Z,15.37
2019-02-08T04:05:13.177Z,12.03
2019-02-08T04:07:41.982Z,15.87
2019-02-08T04:10:12.533Z,13.97
2019-02-08T04:12:41.325Z,11.73
2019-02-08T04:15:12.706Z,18.67
2019-02-08T04:17:42.133Z,13.77
2019-02-08T04:20:11.516Z,10.97
2019-02-08T04:22:40.303Z,14.40
2019-02-08T04:25:09.569Z,19.63
2019-02-08T04:27:38.333Z,14.83
2019-02-08T04:30:11.691Z,15.33
2019-02-08T04:32:40.487Z,15.50
2019-02-08T04:35:09.316Z,16.03
2019-02-08T04:37:38.103Z,14.63
2019-02-08T04:40:07.220Z,14.07
2019-02-08T04:42:36.022Z,15.13
2019-02-08T04:45:05.171Z,18.10
2019-02-08T04:47:33.954Z,21.63
2019-02-08T04:50:02.733Z,9.30
2019-02-08T04:52:31.540Z,10.43
2019-02-08T04:55:00.346Z,22.83
2019-02-08T04:57:29.131Z,23.10
2019-02-08T04:59:58.449Z,14.97
2019-02-08T05:02:27.231Z,14.23
2019-02-08T05:04:56.018Z,17.73
2019-02-08T05:07:24.810Z,21.13
2019-02-08T05:09:54.150Z,11.23
2019-02-08T05:12:23.170Z,16.50
2019-02-08T05:14:51.979Z,18.37
2019-02-08T05:17:20.771Z,16.87
2019-02-08T05:19:49.605Z,15.47
2019-02-08T05:22:18.444Z,25.07
2019-02-08T05:24:47.217Z,15.13
2019-02-08T05:27:16.004Z,24.73
2019-02-08T05:29:44.809Z,16.10
2019-02-08T05:32:13.591Z,21.30
2019-02-08T05:34:42.454Z,30.83
2019-02-08T05:37:11.365Z,22.53
2019-02-08T05:39:40.127Z,19.13
2019-02-08T05:42:08.963Z,19.83
2019-02-08T05:44:37.872Z,22.37
2019-02-08T05:47:06.748Z,16.33
2019-02-08T05:49:35.556Z,22.07
2019-02-08T05:52:05.986Z,20.93
2019-02-08T05:54:33.165Z,22.53
2019-02-08T05:57:01.967Z,16.00
2019-02-08T05:59:37.636Z,14.73
2019-02-08T06:02:06.497Z,16.57
2019-02-08T06:04:35.284Z,19.93
2019-02-08T06:07:04.074Z,20.20
2019-02-08T06:09:32.890Z,15.63
2019-02-08T06:12:01.712Z,21.03
2019-02-08T06:14:30.568Z,27.40
2019-02-08T06:16:59.386Z,15.70
2019-02-08T06:19:28.175Z,26.90
2019-02-08T06:21:56.971Z,26.43
2019-02-08T06:24:25.799Z,19.43
2019-02-08T06:26:54.598Z,21.17
2019-02-08T06:29:23.375Z,24.70
2019-02-08T06:31:52.165Z,19.97
2019-02-08T06:34:20.967Z,22.67
2019-02-08T06:36:50.073Z,20.57
2019-02-08T06:39:18.851Z,20.53
2019-02-08T06:41:47.674Z,25.27
2019-02-08T06:44:17.084Z,25.40
2019-02-08T06:46:45.878Z,24.23
2019-02-08T06:49:14.663Z,20.60
2019-02-08T06:51:43.470Z,17.83
2019-02-08T06:54:13.171Z,18.93
2019-02-08T06:57:49.052Z,27.03
2019-02-08T07:00:23.525Z,14.77
2019-02-08T07:03:02.043Z,30.57
2019-02-08T07:05:36.237Z,25.37
2019-02-08T07:08:10.069Z,23.50
2019-02-08T07:10:44.275Z,21.47
2019-02-08T07:13:26.177Z,16.23
2019-02-08T07:15:59.123Z,15.90
2019-02-08T07:18:39.025Z,25.67
2019-02-08T07:21:13.866Z,21.40
2019-02-08T07:23:48.705Z,20.83
2019-02-08T07:26:23.502Z,23.80
2019-02-08T07:28:56.507Z,22.70
2019-02-08T07:31:30.603Z,24.10
2019-02-08T07:34:10.453Z,26.23
2019-02-08T07:36:44.476Z,17.27
2019-02-08T07:39:18.428Z,22.93
2019-02-08T07:41:52.248Z,26.40
2019-02-08T07:44:42.552Z,29.50
2019-02-08T07:47:20.478Z,24.97
2019-02-08T07:49:55.699Z,28.27
2019-02-08T07:53:30.674Z,25.03
2019-02-08T07:56:05.549Z,22.60
2019-02-08T07:58:42.347Z,24.23
2019-02-08T08:01:34.463Z,23.63
2019-02-08T08:04:11.364Z,19.73
2019-02-08T08:06:51.156Z,16.33
2019-02-08T08:10:24.102Z,20.60
2019-02-08T08:12:58.073Z,32.23
2019-02-08T08:16:31.879Z,32.27
2019-02-08T08:19:12.940Z,21.03
2019-02-08T08:21:47.910Z,14.67
2019-02-08T08:25:20.117Z,19.97
2019-02-08T08:27:59.132Z,21.27
2019-02-08T08:30:33.237Z,16.90
2019-02-08T08:33:09.865Z,24.73
2019-02-08T08:35:54.072Z,23.33
2019-02-08T08:38:41.787Z,15.60
2019-02-08T08:42:27.605Z,19.90
2019-02-08T08:45:24.193Z,16.40
2019-02-08T08:48:03.711Z,15.77
2019-02-08T08:52:48.483Z,20.67
2019-02-08T08:55:41.984Z,22.83
2019-02-08T09:00:19.116Z,17.93
2019-02-08T09:05:02.017Z,21.37
2019-02-08T09:07:41.973Z,14.97
2019-02-08T09:10:24.746Z,12.00
2019-02-08T09:13:14.943Z,24.20
2019-02-08T09:16:01.195Z,13.07
2019-02-08T09:18:42.538Z,15.93
2019-02-08T09:22:28.232Z,17.77
2019-02-08T09:25:10.792Z,18.63
2019-02-08T09:27:55.290Z,10.33
2019-02-08T09:31:43.969Z,9.97
2019-02-08T09:34:23.982Z,11.37
2019-02-08T09:37:07.802Z,9.97
2019-02-08T09:39:53.575Z,13.57
2019-02-08T09:44:37.164Z,9.63
2019-02-08T09:47:53.281Z,13.20
2019-02-08T09:50:33.895Z,11.63
2019-02-08T09:53:20.670Z,9.30
2019-02-08T09:56:06.307Z,11.73
2019-02-08T09:58:48.927Z,9.63
2019-02-08T10:02:28.830Z,11.03
2019-02-08T10:06:06.591Z,8.47
2019-02-08T10:08:45.968Z,9.10
2019-02-08T10:13:29.266Z,11.40
2019-02-08T10:16:19.987Z,7.33
2019-02-08T10:20:00.654Z,8.87
2019-02-08T10:22:55.682Z,11.43
2019-02-08T10:26:39.154Z,12.63
2019-02-08T10:31:22.828Z,8.67
2019-02-08T10:36:05.704Z,8.23
2019-02-08T10:38:59.792Z,8.80
2019-02-08T10:42:42.524Z,4.63
2019-02-08T10:45:28.501Z,8.77
2019-02-08T10:50:20.224Z,7.00
2019-02-08T10:53:04.979Z,6.40
2019-02-08T10:55:45.258Z,8.77
2019-02-08T10:59:28.448Z,12.77
2019-02-08T11:02:08.418Z,5.23
2019-02-08T11:05:51.943Z,9.33
2019-02-08T11:08:30.790Z,5.30
2019-02-08T11:11:16.732Z,4.50
2019-02-08T11:15:09.567Z,7.43
2019-02-08T11:18:54.876Z,7.87
2019-02-08T11:21:23.714Z,6.40
2019-02-08T11:23:52.574Z,5.60
2019-02-08T11:26:23.218Z,5.43
2019-02-08T11:28:50.292Z,7.20
2019-02-08T11:31:19.069Z,6.47
2019-02-08T11:33:47.902Z,6.73
2019-02-08T11:36:16.680Z,8.30
2019-02-08T11:38:45.486Z,7.07
2019-02-08T11:41:14.278Z,3.97
2019-02-08T11:43:43.035Z,9.17
2019-02-08T11:46:11.896Z,9.13
2019-02-08T11:48:40.684Z,7.57
2019-02-08T11:51:09.495Z,4.80
2019-02-08T11:53:38.275Z,6.27
2019-02-08T11:56:07.105Z,5.90
2019-02-08T11:58:35.918Z,3.97
2019-02-08T12:01:04.723Z,4.90
2019-02-08T12:03:33.502Z,7.50
2019-02-08T12:06:02.291Z,6.83
2019-02-08T12:08:31.154Z,7.10
2019-02-08T12:11:06.548Z,4.50
2019-02-08T12:13:35.367Z,4.03
2019-02-08T12:16:04.192Z,3.43
2019-02-08T12:18:32.964Z,4.83
2019-02-08T12:21:01.761Z,5.70
2019-02-08T12:23:30.845Z,4.43
2019-02-08T12:25:59.606Z,3.43
2019-02-08T12:28:28.390Z,6.57
2019-02-08T12:30:57.529Z,4.87
2019-02-08T12:33:26.381Z,3.40
2019-02-08T12:35:55.234Z,2.87
2019-02-08T12:38:24.013Z,10.37
2019-02-08T12:40:52.811Z,5.03
2019-02-08T12:43:28.054Z,2.63
2019-02-08T12:45:56.836Z,6.43
2019-02-08T12:48:25.632Z,4.23
2019-02-08T12:50:54.431Z,12.60
2019-02-08T12:53:23.205Z,5.90
2019-02-08T12:55:51.977Z,7.57
2019-02-08T12:58:20.771Z,2.60
2019-02-08T13:00:49.560Z,6.77
2019-02-08T13:03:18.331Z,19.33
2019-02-08T13:05:47.218Z,6.87
2019-02-08T13:08:16.008Z,8.37
2019-02-08T13:10:44.798Z,4.83
2019-02-08T13:13:13.591Z,6.43
2019-02-08T13:15:42.392Z,6.67
2019-02-08T13:18:11.313Z,7.50
2019-02-08T13:20:40.101Z,6.30
2019-02-08T13:23:08.887Z,7.93
2019-02-08T13:25:37.658Z,6.83
2019-02-08T13:28:06.597Z,8.60
2019-02-08T13:30:35.403Z,9.27
2019-02-08T13:33:04.234Z,7.97
2019-02-08T13:35:33.136Z,9.43
2019-02-08T13:38:01.919Z,5.40
2019-02-08T13:40:30.747Z,4.67
2019-02-08T13:42:59.571Z,8.07
2019-02-08T13:45:28.480Z,5.70
2019-02-08T13:47:57.258Z,10.90
2019-02-08T13:50:26.240Z,13.40
2019-02-08T13:52:55.088Z,8.20
2019-02-08T13:55:24.008Z,16.10
2019-02-08T13:57:52.831Z,11.23
2019-02-08T14:00:25.416Z,10.13
2019-02-08T14:02:54.279Z,12.97
2019-02-08T14:05:23.095Z,12.40
2019-02-08T14:07:51.957Z,8.43
2019-02-08T14:10:20.823Z,9.87
2019-02-08T14:12:49.663Z,9.07
2019-02-08T14:15:18.463Z,10.33
2019-02-08T14:17:47.366Z,9.10
2019-02-08T14:20:18.498Z,16.40
2019-02-08T14:22:47.363Z,9.70
2019-02-08T14:25:16.226Z,10.97
2019-02-08T14:27:45.056Z,11.27
2019-02-08T14:30:20.728Z,10.50
2019-02-08T14:32:49.600Z,11.63
2019-02-08T14:35:18.429Z,10.27
2019-02-08T14:37:47.227Z,15.60
2019-02-08T14:40:18.215Z,13.73
2019-02-08T14:42:47.177Z,17.10
2019-02-08T14:45:16.000Z,21.50
2019-02-08T14:47:44.819Z,14.70
2019-02-08T14:50:16.465Z,9.67
2019-02-08T14:52:45.283Z,13.13
2019-02-08T14:55:14.065Z,15.03
2019-02-08T14:57:43.056Z,11.77
2019-02-08T15:00:14.357Z,7.67
2019-02-08T15:02:43.209Z,14.13
2019-02-08T15:05:12.546Z,15.60
2019-02-08T15:07:42.014Z,12.87
2019-02-08T15:10:17.079Z,15.00
2019-02-08T15:12:45.945Z,11.30
2019-02-08T15:15:14.836Z,11.23
2019-02-08T15:17:43.617Z,13.93
2019-02-08T15:20:18.437Z,14.80
2019-02-08T15:22:47.751Z,11.03
2019-02-08T15:25:17.183Z,12.43
2019-02-08T15:27:45.968Z,8.10
2019-02-08T15:30:18.950Z,13.10
2019-02-08T15:32:47.803Z,8.13
2019-02-08T15:35:17.980Z,12.00
2019-02-08T15:37:47.027Z,11.47
2019-02-08T15:40:20.256Z,10.43
2019-02-08T15:42:49.054Z,14.77
2019-02-08T15:45:18.848Z,10.77
2019-02-08T15:47:47.655Z,12.77
2019-02-08T15:50:16.500Z,11.53
2019-02-08T15:52:45.381Z,13.70
2019-02-08T15:55:18.314Z,17.33
2019-02-08T15:57:47.103Z,9.67
2019-02-08T16:00:18.581Z,12.67
2019-02-08T16:02:47.379Z,15.60
2019-02-08T16:05:16.887Z,9.03
2019-02-08T16:07:45.682Z,14.63
2019-02-08T16:10:14.582Z,15.77
2019-02-08T16:12:43.477Z,12.90
2019-02-08T16:15:15.691Z,15.73
2019-02-08T16:17:44.555Z,8.50
2019-02-08T16:20:13.395Z,16.03
2019-02-08T16:22:43.175Z,16.07
2019-02-08T16:25:12.506Z,14.53
2019-02-08T16:27:41.290Z,9.53
2019-02-08T16:30:13.752Z,8.63
2019-02-08T16:32:42.561Z,11.47
2019-02-08T16:35:11.500Z,10.50
2019-02-08T16:37:40.308Z,9.23
2019-02-08T16:40:11.778Z,15.63
2019-02-08T16:42:40.569Z,13.60
2019-02-08T16:45:12.382Z,13.00
2019-02-08T16:47:41.175Z,10.27
2019-02-08T16:50:12.523Z,10.07
2019-02-08T16:52:41.316Z,11.03
2019-02-08T16:55:11.021Z,14.40
2019-02-08T16:57:47.389Z,14.17
2019-02-08T17:00:13.792Z,10.17
2019-02-08T17:02:45.191Z,11.47
2019-02-08T17:05:15.904Z,16.40
2019-02-08T17:07:44.828Z,7.77
2019-02-08T17:10:14.632Z,9.77
2019-02-08T17:12:43.451Z,8.83
2019-02-08T17:15:14.982Z,9.93
2019-02-08T17:17:43.779Z,14.20
2019-02-08T17:20:16.315Z,10.10
2019-02-08T17:22:45.246Z,8.10
2019-02-08T17:25:14.073Z,10.63
2019-02-08T17:27:42.869Z,11.17
2019-02-08T17:30:13.439Z,13.00
2019-02-08T17:32:42.243Z,11.33
2019-02-08T17:35:11.932Z,8.07
2019-02-08T17:37:40.926Z,7.40
2019-02-08T17:40:12.470Z,7.00
2019-02-08T17:42:41.347Z,9.40
2019-02-08T17:45:11.432Z,5.23
2019-02-08T17:47:40.295Z,5.67
2019-02-08T17:50:10.879Z,5.97
2019-02-08T17:52:39.683Z,6.83
2019-02-08T17:55:09.790Z,3.73
2019-02-08T17:57:38.634Z,9.73
2019-02-08T18:00:12.561Z,8.27
2019-02-08T18:02:41.432Z,14.57
2019-02-08T18:05:10.276Z,8.70
2019-02-08T18:07:39.157Z,8.73
2019-02-08T18:10:10.899Z,8.80
2019-02-08T18:12:39.721Z,6.37
2019-02-08T18:15:10.121Z,5.87
2019-02-08T18:17:38.920Z,9.73
2019-02-08T18:20:12.629Z,7.53
2019-02-08T18:22:41.453Z,11.37
2019-02-08T18:25:10.267Z,10.30
2019-02-08T18:27:39.060Z,8.00
2019-02-08T18:30:09.782Z,7.87
2019-02-08T18:32:38.591Z,10.97
2019-02-08T18:35:07.421Z,11.43
2019-02-08T18:37:36.235Z,6.90
2019-02-08T18:40:05.611Z,7.17
2019-02-08T18:42:34.415Z,8.73
2019-02-08T18:45:03.230Z,13.90
2019-02-08T18:47:32.051Z,13.77
2019-02-08T18:50:00.871Z,8.60
2019-02-08T18:52:29.730Z,8.57
2019-02-08T18:54:58.541Z,6.60
2019-02-08T18:57:27.351Z,12.73
2019-02-08T18:59:56.148Z,9.47
2019-02-08T19:02:24.985Z,16.93
2019-02-08T19:04:53.795Z,11.53
2019-02-08T19:07:22.598Z,10.47
2019-02-08T19:09:51.470Z,9.73
2019-02-08T19:12:20.374Z,9.53
2019-02-08T19:14:49.794Z,8.33
2019-02-08T19:17:18.681Z,11.77
2019-02-08T19:19:47.520Z,11.87
2019-02-08T19:22:17.097Z,7.80
2019-02-08T19:24:46.026Z,14.00
2019-02-08T19:27:14.859Z,9.57
2019-02-08T19:29:43.665Z,8.10
2019-02-08T19:32:12.446Z,29.77
2019-02-08T19:34:41.248Z,13.77
2019-02-08T19:37:10.034Z,13.83
2019-02-08T19:39:38.920Z,20.83
2019-02-08T19:42:07.690Z,16.30
2019-02-08T19:44:36.468Z,12.03
2019-02-08T19:47:05.273Z,6.50
2019-02-08T19:49:34.095Z,7.63
2019-02-08T19:52:02.953Z,10.40
2019-02-08T19:54:31.824Z,12.13
2019-02-08T19:57:00.714Z,11.03
2019-02-08T19:59:29.545Z,13.43
2019-02-08T20:01:58.313Z,13.27
2019-02-08T20:04:27.105Z,13.17
2019-02-08T20:06:55.869Z,10.40
2019-02-08T20:09:24.654Z,9.17
2019-02-08T20:11:53.448Z,11.93
2019-02-08T20:14:22.222Z,13.83
2019-02-08T20:16:51.006Z,8.53
2019-02-08T20:19:19.795Z,12.97
2019-02-08T20:21:48.584Z,10.27
2019-02-08T20:24:17.376Z,7.70
2019-02-08T20:26:46.205Z,7.63
2019-02-08T20:29:14.959Z,8.93
2019-02-08T20:31:43.777Z,5.37
2019-02-08T20:34:12.667Z,6.10
2019-02-08T20:36:41.446Z,9.60
2019-02-08T20:39:10.567Z,12.53
2019-02-08T20:41:39.448Z,9.27
2019-02-08T20:44:08.233Z,8.27
2019-02-08T20:46:37.048Z,11.07
2019-02-08T20:49:05.863Z,7.87
2019-02-08T20:51:34.636Z,11.53
2019-02-08T20:54:03.442Z,13.70
2019-02-08T20:56:32.238Z,11.00
2019-02-08T20:59:01.046Z,11.93
2019-02-08T21:01:29.823Z,12.57
2019-02-08T21:03:58.692Z,10.10
2019-02-08T21:06:27.520Z,15.23
2019-02-08T21:08:56.297Z,28.00
2019-02-08T21:11:25.090Z,7.10
2019-02-08T21:13:53.874Z,4.33
2019-02-08T21:16:22.659Z,10.47
2019-02-08T21:18:51.452Z,9.43
2019-02-08T21:21:20.243Z,9.30
2019-02-08T21:23:49.043Z,8.37
2019-02-08T21:26:17.828Z,10.00
2019-02-08T21:28:46.749Z,14.97
2019-02-08T21:31:15.556Z,15.57
2019-02-08T21:33:44.382Z,9.87
2019-02-08T21:36:13.288Z,9.33
2019-02-08T21:38:42.075Z,12.80
2019-02-08T21:41:10.950Z,11.57
2019-02-08T21:43:39.830Z,12.83
2019-02-08T21:46:08.671Z,10.93
2019-02-08T21:48:37.464Z,14.30
2019-02-08T21:51:06.252Z,16.30
2019-02-08T21:53:35.029Z,13.97
2019-02-08T21:56:03.883Z,8.80
2019-02-08T21:58:32.785Z,13.40
2019-02-08T22:01:01.528Z,19.97
2019-02-08T22:03:31.316Z,7.93
2019-02-08T22:06:02.281Z,11.43
2019-02-08T22:08:31.135Z,19.00
2019-02-08T22:10:59.930Z,13.17
2019-02-08T22:13:28.791Z,14.30
2019-02-08T22:15:57.554Z,10.43
2019-02-08T22:18:26.356Z,10.73
2019-02-08T22:20:55.191Z,11.90
2019-02-08T22:23:24.045Z,14.87
2019-02-08T22:25:52.791Z,9.33
2019-02-08T22:28:21.694Z,11.10
2019-02-08T22:30:50.650Z,10.10
2019-02-08T22:33:19.503Z,9.93
2019-02-08T22:35:48.270Z,11.90
2019-02-08T22:38:17.107Z,15.63
2019-02-08T22:40:45.930Z,7.00
2019-02-08T22:43:14.699Z,7.60
2019-02-08T22:45:43.548Z,23.80
2019-02-08T22:48:12.403Z,15.27
2019-02-08T22:50:41.196Z,8.10
2019-02-08T22:53:10.114Z,15.07
2019-02-08T22:55:38.923Z,12.80
2019-02-08T22:58:08.228Z,10.87
2019-02-08T23:01:47.133Z,11.13
2019-02-08T23:04:16.279Z,15.30
2019-02-08T23:06:45.274Z,12.97
2019-02-08T23:09:21.546Z,9.03
2019-02-08T23:11:50.318Z,10.57
2019-02-08T23:14:19.761Z,12.03
2019-02-08T23:16:49.185Z,10.50
2019-02-08T23:19:17.980Z,8.93
2019-02-08T23:21:47.490Z,7.50
2019-02-08T23:24:16.340Z,8.23
2019-02-08T23:26:45.139Z,7.00
2019-02-08T23:29:13.960Z,9.77
2019-02-08T23:31:42.739Z,8.53
2019-02-08T23:34:11.530Z,9.50
2019-02-08T23:36:40.307Z,8.97
2019-02-08T23:39:12.535Z,8.03
2019-02-08T23:41:41.317Z,9.63
2019-02-08T23:44:10.118Z,9.63
2019-02-08T23:46:38.893Z,9.07
2019-02-08T23:49:07.694Z,9.30
2019-02-08T23:51:36.514Z,14.93
2019-02-08T23:54:05.287Z,8.07
2019-02-08T23:56:34.078Z,12.70
2019-02-08T23:59:02.877Z,11.87
